Diehlstadt, Missouri
Current Conditions -  °F | °C
As of 8:15 PM on Monday 22 Dec 2014 (Local Time) from KCIR Reporting Station
Drizzle Drizzle  
Wind Chill: 54°   Ceiling: 700
Heat Index: 54°   Visibility: 5mi
Dew Point: 54°   Wind: 8mph
Humidity: 100%   Direction: 160°SSE
Pressure: 29.61"   Gusts: NA
Location:  36.9188°N, 89.2741°W
Report Text: KCIR 230215Z AUTO 16007KT 5SM DZ OVC007 12/12 A2961 RMK AO2 T01240124
Loading
Personal Weather Stations






























Interactive Weather Map New forecast layout! Learn more

10-Day Weather Forecast

Advertisements
Track Severe Weather on mobile